Data for 03/06/2016

Time Sea-Level Adjusted Pressure Absolute Pressure Temperature Relative Humidity Dew Point   
(mb) (inHg) (mb) (inHg) (C) (F) (%) (C) (F)
00:05 1009 29.8 838 24.75 6.7 44.1 51 -2.7 27.2
00:10 1009 29.8 838 24.75 6.8 44.3 49 -3.2 26.3
00:15 1009 29.8 838 24.75 7 44.7 49 -2.9 26.8
00:20 1009 29.8 838 24.75 6.9 44.4 50 -2.8 27
00:25 1009 29.8 838 24.75 7.4 45.2 48 -3 26.5
00:30 1009 29.8 838 24.75 7.2 45 48 -2.9 26.8
00:35 1009 29.8 838 24.75 7.1 44.8 48 -3.1 26.5
00:40 1009 29.8 838 24.75 7.2 44.9 48 -3.1 26.5
00:45 1009 29.8 838 24.75 7.2 44.9 49 -2.8 26.9
00:50 1009 29.8 838 24.75 7 44.6 49 -3.1 26.4
00:55 1009 29.8 838 24.75 7.1 44.8 50 -2.7 27.1
01:00 1009 29.8 838 24.75 6.9 44.4 50 -2.9 26.8
01:05 1009 29.8 838 24.75 7 44.6 49 -2.8 26.9
01:10 1009 29.8 838 24.75 7.2 44.9 49 -2.8 27
01:15 1009 29.8 838 24.75 7.2 45 48 -3 26.6
01:20 1009 29.8 838 24.75 7.5 45.6 47 -3 26.6
01:25 1009 29.8 838 24.75 7.6 45.7 48 -2.7 27.1
01:30 1009 29.8 838 24.75 7.7 45.9 46 -3.2 26.2
01:35 1009 29.8 838 24.75 8.1 46.7 44 -3.4 25.9
01:40 1009 29.8 838 24.75 8.4 47.1 45 -2.9 26.9
01:45 1009 29.8 838 24.75 8.1 46.6 45 -3.1 26.5
01:50 1009 29.8 838 24.75 8.1 46.5 46 -2.8 27
01:55 1009 29.8 838 24.75 7.3 45.2 50 -2.4 27.6
02:00 1009 29.8 838 24.75 6.6 43.8 52 -2.7 27.1
02:05 1009 29.8 838 24.75 6.4 43.6 52 -2.8 27
02:10 1009 29.8 838 24.75 6.6 44 51 -2.7 27.1
02:15 1009 29.8 838 24.75 6.5 43.7 51 -2.8 27
02:20 1009 29.8 838 24.75 6.8 44.3 49 -3 26.6
02:25 1009 29.8 838 24.75 7.3 45.1 48 -2.9 26.7
02:30 1009 29.8 838 24.75 7.3 45.1 49 -2.6 27.3
02:35 1009 29.8 838 24.75 6.8 44.3 51 -2.6 27.4
02:40 1009 29.8 838 24.75 6.5 43.6 52 -2.8 27
02:45 1009 29.8 838 24.75 6.2 43.2 52 -2.8 27
02:50 1009 29.8 838 24.75 6.5 43.7 50 -3.1 26.5
02:55 1009 29.8 838 24.75 6.7 44.1 50 -2.8 26.9
03:00 1009 29.8 838 24.75 6.6 43.9 51 -2.8 26.9
03:05 1008 29.77 838 24.75 6.6 43.8 50 -3.1 26.4
03:10 1008 29.77 838 24.75 6.7 44.1 50 -2.9 26.7
03:15 1008 29.77 838 24.75 6.6 43.8 50 -3 26.6
03:20 1008 29.77 838 24.75 6.7 44.1 50 -3 26.7
03:25 1008 29.77 838 24.75 6.9 44.5 50 -2.9 26.9
03:30 1008 29.77 838 24.75 6.9 44.5 49 -3 26.6
03:35 1008 29.77 837 24.72 7.1 44.7 49 -3.1 26.5
03:40 1008 29.77 837 24.72 7.2 44.9 49 -2.9 26.8
03:45 1008 29.77 837 24.72 7.4 45.2 48 -2.9 26.8
03:50 1008 29.77 837 24.72 7.5 45.5 48 -2.7 27.2
03:55 1008 29.77 837 24.72 7.2 45 50 -2.6 27.3
04:00 1008 29.77 837 24.72 7.2 45 50 -2.6 27.3
04:05 1008 29.77 837 24.72 7.2 44.9 50 -2.5 27.5
04:10 1008 29.77 837 24.72 7.3 45.1 50 -2.3 27.8
04:15 1008 29.77 837 24.72 7.3 45.2 50 -2.5 27.5
04:20 1008 29.77 837 24.72 7.2 45 50 -2.4 27.6
04:25 1008 29.77 837 24.72 7.3 45.1 50 -2.3 27.8
04:30 1008 29.77 837 24.72 7.2 45 52 -2.1 28.2
04:35 1007 29.74 837 24.72 7 44.6 51 -2.3 27.8
04:40 1007 29.74 837 24.72 7.3 45.2 51 -2.2 28
04:45 1007 29.74 837 24.72 7.6 45.7 49 -2.3 27.8
04:50 1007 29.74 836 24.69 7.8 46 49 -2.1 28.1
04:55 1007 29.74 836 24.69 7.5 45.4 51 -2.1 28.2
05:00 1007 29.74 836 24.69 7.4 45.3 50 -2.2 28.1
05:05 1007 29.74 836 24.69 7.6 45.7 50 -2.2 28.1
05:10 1007 29.74 836 24.69 7.6 45.6 50 -2.1 28.2
05:15 1007 29.74 836 24.69 7.9 46.2 49 -2 28.3
05:20 1007 29.74 836 24.69 7.9 46.2 49 -2.1 28.2
05:25 1007 29.74 836 24.69 7.8 46 50 -1.9 28.6
05:30 1006 29.71 836 24.69 7.6 45.7 50 -2.1 28.1
05:35 1006 29.71 836 24.69 7.7 45.8 49 -2.3 27.9
05:40 1006 29.71 835 24.66 8 46.3 47 -2.5 27.5
05:45 1006 29.71 835 24.66 8 46.4 49 -2.1 28.2
05:50 1006 29.71 835 24.66 7.9 46.2 49 -2.1 28.2
05:55 1006 29.71 835 24.66 7.7 45.8 50 -2.2 28
06:00 1006 29.71 835 24.66 7.8 46 49 -2.1 28.1
06:05 1006 29.71 835 24.66 7.7 45.8 49 -2.3 27.9
06:10 1006 29.71 835 24.66 7.9 46.2 49 -2.2 28
06:15 1006 29.71 835 24.66 7.9 46.1 49 -2.3 27.9
06:20 1006 29.71 835 24.66 7.8 46 49 -2.3 27.8
06:25 1005 29.68 835 24.66 8.1 46.6 47 -2.5 27.5
06:30 1006 29.71 835 24.66 8.2 46.8 47 -2.3 27.9
06:35 1006 29.71 835 24.66 8.1 46.6 47 -2.5 27.6
06:40 1005 29.68 835 24.66 8.3 47 47 -2.4 27.6
06:45 1005 29.68 835 24.66 8.3 46.9 46 -2.6 27.3
06:50 1005 29.68 835 24.66 8.3 47 47 -2.4 27.6
06:55 1005 29.68 834 24.63 8.4 47 46 -2.6 27.3
07:00 1005 29.68 834 24.63 8.3 46.9 46 -2.6 27.3
07:05 1005 29.68 834 24.63 8.4 47.1 45 -2.9 26.7
07:10 1005 29.68 834 24.63 8.7 47.7 43 -3 26.6
07:15 1005 29.68 834 24.63 9 48.1 43 -3.1 26.5
07:20 1005 29.68 834 24.63 8.8 47.9 41 -3.8 25.1
07:25 1005 29.68 834 24.63 9.4 49 40 -3.4 25.9
07:30 1005 29.68 834 24.63 9.4 48.9 41 -3 26.5
07:35 1005 29.68 834 24.63 9 48.2 42 -3.1 26.3
07:40 1005 29.68 834 24.63 8.8 47.9 43 -3 26.5
07:45 1005 29.68 834 24.63 8.4 47.2 43 -3.3 26.1
07:50 1005 29.68 834 24.63 8.7 47.6 42 -3.6 25.5
07:55 1005 29.68 834 24.63 8.7 47.6 43 -3.2 26.3
08:00 1005 29.68 834 24.63 8.3 46.9 44 -3.3 26.1
08:05 1005 29.68 834 24.63 8.1 46.5 45 -3.1 26.5
08:10 1004 29.65 834 24.63 7.7 45.9 46 -3.1 26.3
08:15 1005 29.68 834 24.63 7.5 45.5 47 -3.1 26.4
08:20 1005 29.68 834 24.63 7.4 45.4 46 -3.4 25.9
08:25 1004 29.65 834 24.63 7.6 45.6 45 -3.7 25.3
08:30 1004 29.65 834 24.63 8.1 46.6 43 -3.8 25.2
08:35 1004 29.65 834 24.63 8.2 46.8 43 -3.5 25.7
08:40 1004 29.65 834 24.63 8.3 46.9 42 -3.9 24.9
08:45 1004 29.65 833 24.6 8.6 47.4 41 -3.9 24.9
08:50 1004 29.65 833 24.6 8.5 47.4 42 -3.8 25.2
08:55 1004 29.65 834 24.63 8.7 47.7 40 -4.2 24.4
09:00 1004 29.65 834 24.63 8.8 47.9 42 -3.5 25.7
09:05 1004 29.65 834 24.63 8.5 47.4 42 -3.6 25.5
09:10 1004 29.65 834 24.63 8.6 47.6 41 -3.8 25.2
09:15 1004 29.65 834 24.63 8.8 47.9 39 -4.3 24.3
09:20 1004 29.65 833 24.6 9.2 48.6 40 -3.8 25.2
09:25 1004 29.65 833 24.6 9.2 48.6 39 -3.9 25
09:30 1004 29.65 833 24.6 9.4 49 39 -4 24.8
09:35 1004 29.65 833 24.6 9.6 49.3 38 -4 24.8
09:40 1004 29.65 833 24.6 9.9 49.7 37 -4.1 24.5
09:45 1004 29.65 833 24.6 10.5 50.9 34 -4.9 23.3
09:50 1004 29.65 833 24.6 11.5 52.6 31 -5 22.9
09:55 1004 29.65 833 24.6 12 53.6 31 -4.6 23.6
10:00 1004 29.65 833 24.6 12 53.7 31 -4.4 24.2
10:05 1004 29.65 833 24.6 11.9 53.4 32 -4.3 24.3
10:10 1004 29.65 833 24.6 11.9 53.5 31 -4.5 23.9
10:15 1004 29.65 833 24.6 12.1 53.8 31 -4.7 23.6
10:20 1004 29.65 833 24.6 12.1 53.7 32 -4.3 24.3
10:25 1004 29.65 833 24.6 11.9 53.5 32 -4.3 24.2
10:30 1004 29.65 833 24.6 12.1 53.7 31 -4.3 24.2
10:35 1004 29.65 833 24.6 12.2 54 31 -4.4 24.1
10:40 1004 29.65 833 24.6 12.3 54.1 31 -4.4 24.1
10:45 1004 29.65 833 24.6 12.1 53.8 32 -4.1 24.5
10:50 1004 29.65 833 24.6 12 53.7 32 -4.2 24.4
10:55 1004 29.65 833 24.6 12 53.6 32 -4.2 24.4
11:00 1003 29.62 833 24.6 11.9 53.3 33 -4 24.8
11:05 1003 29.62 833 24.6 11.8 53.2 32 -4.4 24.1
11:10 1003 29.62 833 24.6 12 53.5 32 -4.2 24.5
11:15 1003 29.62 833 24.6 12 53.6 32 -4 24.8
11:20 1003 29.62 832 24.57 12.1 53.8 32 -4.1 24.6
11:25 1003 29.62 832 24.57 12.1 53.8 32 -4 24.8
11:30 1003 29.62 832 24.57 12.2 53.9 32 -3.9 25
11:35 1003 29.62 832 24.57 12.2 54 33 -3.7 25.3
11:40 1003 29.62 832 24.57 12.3 54.1 33 -3.6 25.5
11:45 1003 29.62 832 24.57 12.2 54 33 -3.5 25.6
11:50 1003 29.62 832 24.57 12.2 53.9 33 -3.6 25.6
11:55 1003 29.62 832 24.57 12.2 53.9 34 -3.4 26
12:00 1003 29.62 832 24.57 12.1 53.8 34 -3.4 26
12:05 1003 29.62 832 24.57 12.1 53.7 34 -3.4 26
12:10 1003 29.62 832 24.57 12 53.6 34 -3.2 26.2
12:15 1003 29.62 832 24.57 12 53.6 34 -3.5 25.7
12:20 1002 29.59 832 24.57 11.9 53.4 35 -3.1 26.4
12:25 1002 29.59 832 24.57 11.8 53.2 35 -3 26.7
12:30 1002 29.59 831 24.54 11.7 53 36 -3 26.6
12:35 1002 29.59 831 24.54 11.7 53 36 -3 26.6
12:40 1002 29.59 831 24.54 11.7 53.1 35 -3.1 26.5
12:45 1002 29.59 831 24.54 11.6 52.9 36 -3 26.6
12:50 1002 29.59 831 24.54 11.6 52.9 36 -3 26.7
12:55 1002 29.59 831 24.54 11.7 53.1 36 -3 26.6
13:00 1002 29.59 831 24.54 11.7 53.1 36 -2.8 27
13:05 1002 29.59 831 24.54 11.7 53.1 36 -2.9 26.8
13:10 1002 29.59 831 24.54 11.8 53.2 36 -2.7 27.1
13:15 1002 29.59 831 24.54 11.8 53.2 36 -2.6 27.3
13:20 1002 29.59 831 24.54 11.8 53.2 36 -2.6 27.3
13:25 1002 29.59 831 24.54 11.8 53.3 36 -2.7 27.2
13:30 1002 29.59 831 24.54 11.9 53.5 36 -2.7 27.2
13:35 1001 29.56 831 24.54 12 53.7 37 -2.3 27.9
13:40 1001 29.56 831 24.54 12.1 53.7 37 -2.3 27.9
13:45 1001 29.56 830 24.51 12.2 53.9 36 -2.3 27.9
13:50 1001 29.56 831 24.54 12.2 53.9 37 -2 28.4
13:55 1001 29.56 830 24.51 12.2 53.9 37 -1.9 28.6
14:00 1001 29.56 830 24.51 12.2 54 37 -2 28.4
14:05 1001 29.56 830 24.51 12.3 54.2 36 -2.2 28.1
14:10 1001 29.56 830 24.51 12.5 54.5 36 -2.2 28.1
14:15 1001 29.56 830 24.51 12.6 54.6 36 -2 28.4
14:20 1001 29.56 830 24.51 12.5 54.6 36 -2.1 28.2
14:25 1001 29.56 830 24.51 12.6 54.7 36 -2 28.4
14:30 1001 29.56 830 24.51 12.7 54.8 36 -1.9 28.6
14:35 1001 29.56 830 24.51 12.6 54.7 37 -1.8 28.8
14:40 1001 29.56 830 24.51 12.7 54.8 37 -1.6 29.2
14:45 1001 29.56 830 24.51 13 55.3 35 -1.9 28.6
14:50 1001 29.56 830 24.51 13.5 56.2 34 -1.9 28.6
14:55 1001 29.56 830 24.51 14 57.1 33 -1.8 28.8
15:00 1001 29.56 830 24.51 13.8 56.8 34 -1.7 28.9
15:05 1001 29.56 830 24.51 13.4 56.2 35 -1.6 29.1
15:10 1001 29.56 830 24.51 13.2 55.8 36 -1.3 29.6
15:15 1001 29.56 830 24.51 13.2 55.8 36 -1.4 29.5
15:20 1001 29.56 830 24.51 13.2 55.7 34 -2.1 28.3
15:25 1001 29.56 830 24.51 13.1 55.6 35 -1.8 28.7
15:30 1001 29.56 830 24.51 13.1 55.5 34 -2.2 28
15:35 1001 29.56 830 24.51 12.9 55.2 36 -1.9 28.6
15:40 1001 29.56 830 24.51 12.8 55.1 35 -2.2 28
15:45 1001 29.56 830 24.51 12.8 55.1 35 -2.2 28.1
15:50 1001 29.56 830 24.51 12.8 55 35 -2.3 27.9
15:55 1001 29.56 830 24.51 12.8 55.1 35 -2.3 27.8
16:00 1001 29.56 830 24.51 12.8 55.1 34 -2.5 27.6
16:05 1001 29.56 830 24.51 12.9 55.1 34 -2.5 27.6
16:10 1001 29.56 830 24.51 12.9 55.2 35 -2.2 28.1
16:15 1001 29.56 830 24.51 12.9 55.2 35 -2 28.4
16:20 1001 29.56 830 24.51 12.8 55.1 36 -1.9 28.5
16:25 1001 29.56 830 24.51 12.7 54.9 36 -1.8 28.8
16:30 1001 29.56 830 24.51 12.5 54.5 38 -1.3 29.6
16:35 1001 29.56 830 24.51 12.3 54.2 38 -1.6 29.2
16:40 1001 29.56 830 24.51 12.1 53.7 40 -1.2 29.9
16:45 1001 29.56 830 24.51 12 53.6 41 -0.8 30.5
16:50 1001 29.56 830 24.51 11.7 53.1 41 -1 30.3
16:55 1001 29.56 830 24.51 11.6 52.8 41 -1.3 29.7
17:00 1001 29.56 830 24.51 11.6 52.8 40 -1.5 29.4
17:05 1001 29.56 830 24.51 11.6 52.8 41 -1.1 30
17:10 1001 29.56 831 24.54 11.2 52.2 44 -0.5 31.1
17:15 1001 29.56 831 24.54 10.9 51.6 47 -0 32
17:20 1002 29.59 831 24.54 10.8 51.4 46 -0.2 31.7
17:25 1002 29.59 831 24.54 10.6 51.2 49 0.4 32.8
17:30 1002 29.59 831 24.54 10.6 51 49 0.2 32.4
17:35 1002 29.59 831 24.54 10.6 51.1 49 0.4 32.7
17:40 1002 29.59 831 24.54 10.6 51 49 0.3 32.5
17:45 1002 29.59 831 24.54 10.6 51.1 47 -0.1 31.9
17:50 1002 29.59 831 24.54 10.6 51.2 47 -0.2 31.7
17:55 1002 29.59 831 24.54 10.6 51.1 49 0.4 32.7
18:00 1002 29.59 831 24.54 10.6 51 51 0.8 33.4
18:05 1002 29.59 831 24.54 10.5 50.8 51 0.8 33.4
18:10 1002 29.59 831 24.54 10.3 50.6 52 0.8 33.5
18:15 1002 29.59 832 24.57 10.1 50.1 53 1.1 33.9
18:20 1003 29.62 832 24.57 9.2 48.5 66 3.3 37.9
18:25 1003 29.62 832 24.57 7.1 44.9 78 3.5 38.4
18:30 1003 29.62 832 24.57 6.2 43.1 80 3 37.4
18:35 1003 29.62 833 24.6 5.9 42.6 81 2.8 37.1
18:40 1004 29.65 833 24.6 5.7 42.3 83 3.1 37.5
18:45 1004 29.65 833 24.6 5.5 41.9 84 3.1 37.5
18:50 1004 29.65 833 24.6 5.4 41.6 85 3.1 37.6
18:55 1004 29.65 833 24.6 5.2 41.3 87 3.2 37.8
19:00 1004 29.65 833 24.6 4.8 40.7 89 3.2 37.7
19:05 1004 29.65 833 24.6 4.7 40.5 90 3.2 37.7
19:10 1004 29.65 834 24.63 4.6 40.3 89 2.9 37.3
19:15 1004 29.65 834 24.63 4.2 39.6 89 2.6 36.6
19:20 1005 29.68 834 24.63 4 39.2 88 2.2 35.9
19:25 1005 29.68 834 24.63 3.8 38.9 87 1.8 35.3
19:30 1005 29.68 834 24.63 3.7 38.7 86 1.6 34.8
19:35 1005 29.68 834 24.63 3.7 38.6 85 1.3 34.4
19:40 1005 29.68 834 24.63 3.6 38.6 83 1.1 33.9
19:45 1005 29.68 834 24.63 3.6 38.6 82 0.9 33.6
19:50 1005 29.68 834 24.63 3.6 38.5 79 0.4 32.7
19:55 1005 29.68 834 24.63 3.6 38.4 80 0.5 32.9
20:00 1005 29.68 834 24.63 3.4 38 82 0.6 33
20:05 1005 29.68 834 24.63 3.3 37.9 82 0.5 32.9
20:10 1005 29.68 834 24.63 3.3 37.9 82 0.6 33
20:15 1005 29.68 835 24.66 3.2 37.7 84 0.7 33.2
20:20 1005 29.68 835 24.66 3.1 37.6 83 0.6 33.1
20:25 1005 29.68 835 24.66 3.1 37.6 84 0.7 33.2
20:30 1005 29.68 835 24.66 3.1 37.6 84 0.7 33.3
20:35 1006 29.71 835 24.66 3.1 37.5 84 0.7 33.2
20:40 1006 29.71 835 24.66 3 37.4 85 0.6 33.2
20:45 1006 29.71 835 24.66 2.8 37.1 84 0.4 32.6
20:50 1006 29.71 835 24.66 2.8 37 85 0.4 32.8
20:55 1006 29.71 835 24.66 2.6 36.7 84 0.2 32.3
21:00 1006 29.71 835 24.66 2.3 36.1 85 -0 31.9
21:05 1006 29.71 835 24.66 2 35.6 86 -0.1 31.7
21:10 1006 29.71 835 24.66 1.6 34.8 88 -0.2 31.6
21:15 1006 29.71 835 24.66 1.3 34.4 89 -0.3 31.4
21:20 1006 29.71 835 24.66 1.2 34.1 89 -0.4 31.3
21:25 1006 29.71 835 24.66 1.1 33.9 90 -0.4 31.3
21:30 1006 29.71 835 24.66 1 33.7 91 -0.4 31.3
21:35 1006 29.71 835 24.66 0.9 33.6 91 -0.4 31.2
21:40 1006 29.71 835 24.66 1 33.8 90 -0.5 31.1
21:45 1006 29.71 835 24.66 1.1 33.9 89 -0.5 31
21:50 1006 29.71 835 24.66 1.3 34.3 88 -0.6 31
21:55 1006 29.71 835 24.66 1.4 34.5 86 -0.7 30.7
22:00 1006 29.71 835 24.66 1.5 34.7 85 -0.7 30.7
22:05 1006 29.71 835 24.66 1.6 34.8 84 -0.8 30.6
22:10 1006 29.71 835 24.66 1.6 34.9 84 -0.8 30.6
22:15 1006 29.71 835 24.66 1.7 35.1 83 -0.8 30.5
22:20 1006 29.71 835 24.66 1.8 35.3 82 -1 30.2
22:25 1006 29.71 835 24.66 1.9 35.5 81 -1 30.2
22:30 1006 29.71 835 24.66 2 35.6 79 -1.2 29.8
22:35 1006 29.71 835 24.66 2.1 35.8 78 -1.4 29.5
22:40 1006 29.71 835 24.66 2.1 35.8 77 -1.5 29.2
22:45 1006 29.71 835 24.66 2 35.7 76 -1.8 28.7
22:50 1006 29.71 835 24.66 2.1 35.8 75 -1.9 28.5
22:55 1006 29.71 835 24.66 2.2 36 73 -2.1 28.2
23:00 1006 29.71 835 24.66 2.3 36.2 70 -2.5 27.5
23:05 1006 29.71 835 24.66 2.4 36.4 70 -2.4 27.7
23:10 1006 29.71 835 24.66 2.5 36.5 70 -2.5 27.5
23:15 1006 29.71 835 24.66 2.5 36.4 71 -2.3 27.9
23:20 1006 29.71 835 24.66 2.4 36.3 71 -2.3 27.8
23:25 1006 29.71 835 24.66 2.5 36.4 70 -2.5 27.5
23:30 1006 29.71 835 24.66 2.4 36.4 71 -2.3 27.8
23:35 1006 29.71 835 24.66 2.4 36.4 70 -2.5 27.5
23:40 1006 29.71 835 24.66 2.5 36.5 69 -2.6 27.3
23:45 1006 29.71 835 24.66 2.6 36.6 69 -2.5 27.6
23:50 1006 29.71 835 24.66 2.5 36.6 69 -2.6 27.3
23:55 1006 29.71 835 24.66 2.5 36.6 69 -2.6 27.3
24:00 1006 29.71 835 24.66 2.5 36.5 70 -2.5 27.6